Time;durP1;ratioP1;P1;durP2;ratioP2;P2;SDS_P1;SDS_P2;PMS_P1;PMS_P2;Temp;Humidity;BMP_temperature;BMP_pressure;BME280_temperature;BME280_humidity;BME280_pressure;Samples;Min_cycle;Max_cycle;Signal;HPM_P1;HPM_P2
2021/09/08 00:00:12;;;;;;;12.15;5.50;;;16.50;99.90;;;;;;4910867;29;20043;-73
2021/09/08 00:02:39;;;;;;;11.93;6.45;;;16.40;99.90;;;;;;4910435;29;20029;-74
2021/09/08 00:05:07;;;;;;;13.48;7.45;;;16.40;99.90;;;;;;4910916;29;20040;-74
2021/09/08 00:07:33;;;;;;;12.63;6.63;;;16.30;99.90;;;;;;4911086;29;20060;-73
2021/09/08 00:09:58;;;;;;;12.20;6.75;;;16.30;99.90;;;;;;4910399;29;20032;-73
2021/09/08 00:12:24;;;;;;;14.98;7.00;;;16.30;99.90;;;;;;4910846;29;20107;-73
2021/09/08 00:14:49;;;;;;;13.07;6.75;;;16.30;99.90;;;;;;4910409;29;20053;-73
2021/09/08 00:17:15;;;;;;;15.82;6.78;;;16.20;99.90;;;;;;4910281;29;20185;-74
2021/09/08 00:19:41;;;;;;;10.95;6.10;;;16.20;99.90;;;;;;4910600;29;20458;-73
2021/09/08 00:22:06;;;;;;;12.35;6.15;;;16.20;99.90;;;;;;4910266;29;20032;-73
2021/09/08 00:24:32;;;;;;;14.73;7.18;;;16.10;99.90;;;;;;4910419;29;20092;-73
2021/09/08 00:26:59;;;;;;;13.93;6.78;;;16.10;99.90;;;;;;4910533;29;20048;-73
2021/09/08 00:29:25;;;;;;;13.60;6.72;;;16.10;99.90;;;;;;4910249;29;20478;-74
2021/09/08 00:31:51;;;;;;;15.52;7.13;;;16.10;99.90;;;;;;4910652;29;20074;-73
2021/09/08 00:34:16;;;;;;;12.27;6.85;;;16.10;99.90;;;;;;4910384;29;20033;-74
2021/09/08 00:36:42;;;;;;;11.43;5.45;;;16.10;99.90;;;;;;4909975;29;20056;-73
2021/09/08 00:39:07;;;;;;;12.57;6.65;;;16.00;99.90;;;;;;4910500;29;20036;-74
2021/09/08 00:41:33;;;;;;;12.07;6.93;;;16.00;99.90;;;;;;4910102;29;20079;-73
2021/09/08 00:44:07;;;;;;;14.15;5.85;;;16.00;99.90;;;;;;4892934;29;20037;-73
2021/09/08 00:46:32;;;;;;;13.73;7.07;;;16.10;99.90;;;;;;4910360;29;20043;-74
2021/09/08 00:48:58;;;;;;;12.90;6.15;;;16.00;99.90;;;;;;4893443;29;20033;-75
2021/09/08 00:51:24;;;;;;;15.40;6.35;;;15.90;99.90;;;;;;4909840;29;20026;-74
2021/09/08 00:53:51;;;;;;;11.80;6.05;;;15.90;99.90;;;;;;4893297;29;20025;-73
2021/09/08 00:56:17;;;;;;;10.98;6.13;;;15.90;99.90;;;;;;4909609;29;20032;-72
2021/09/08 00:58:43;;;;;;;16.33;6.43;;;15.90;99.90;;;;;;4909427;29;20033;-73
2021/09/08 01:01:08;;;;;;;20.13;7.40;;;15.90;99.90;;;;;;4909823;29;20128;-74
2021/09/08 01:03:34;;;;;;;17.73;6.22;;;15.90;99.90;;;;;;4909525;29;20389;-73
2021/09/08 01:05:59;;;;;;;12.70;7.03;;;15.90;99.90;;;;;;4910058;29;20065;-74
2021/09/08 01:08:25;;;;;;;15.23;6.72;;;15.80;99.90;;;;;;4909782;29;20033;-74
2021/09/08 01:10:51;;;;;;;12.20;6.45;;;15.70;99.90;;;;;;4909496;29;20040;-74
2021/09/08 01:13:16;;;;;;;14.75;6.95;;;15.70;99.90;;;;;;4909126;29;20072;-74
2021/09/08 01:16:01;;;;;;;13.60;6.75;;;15.70;99.90;;;;;;4909711;29;20053;-74
2021/09/08 01:18:31;;;;;;;10.32;5.75;;;15.70;99.90;;;;;;4909601;29;20029;-74
2021/09/08 01:20:57;;;;;;;15.07;7.22;;;15.70;99.90;;;;;;4892634;29;20497;-75
2021/09/08 01:23:22;;;;;;;14.15;6.60;;;15.60;99.90;;;;;;4909640;29;20028;-74
2021/09/08 01:25:48;;;;;;;15.77;7.22;;;15.60;99.90;;;;;;4909362;29;20036;-74
2021/09/08 01:28:14;;;;;;;9.82;6.10;;;15.60;99.90;;;;;;4909424;29;20033;-74
2021/09/08 01:30:42;;;;;;;12.77;6.28;;;15.60;99.90;;;;;;4892189;29;20092;-75
2021/09/08 01:33:10;;;;;;;18.77;7.07;;;15.50;99.90;;;;;;4909473;29;20028;-74
2021/09/08 01:35:35;;;;;;;19.98;5.88;;;15.40;99.90;;;;;;4909604;29;20033;-73
2021/09/08 01:38:01;;;;;;;13.55;6.97;;;15.40;99.90;;;;;;4892293;29;20068;-74
2021/09/08 01:40:27;;;;;;;11.77;6.03;;;15.40;99.90;;;;;;4909153;29;20068;-73
2021/09/08 01:42:52;;;;;;;9.95;6.45;;;15.40;99.90;;;;;;4909504;29;20268;-74
2021/09/08 01:45:18;;;;;;;16.13;6.95;;;15.30;99.90;;;;;;4892054;29;20506;-74
2021/09/08 01:47:45;;;;;;;13.93;5.80;;;15.30;99.90;;;;;;4909189;29;20080;-73
2021/09/08 01:50:11;;;;;;;17.73;6.43;;;15.30;99.90;;;;;;4909185;29;20037;-74
2021/09/08 01:52:37;;;;;;;12.07;6.07;;;15.30;99.90;;;;;;4908639;29;20027;-73
2021/09/08 01:55:08;;;;;;;12.15;6.38;;;15.30;99.90;;;;;;4909335;29;20038;-74
2021/09/08 01:57:34;;;;;;;17.45;7.65;;;15.30;99.90;;;;;;4909365;29;20053;-74
2021/09/08 02:00:00;;;;;;;12.00;5.80;;;15.30;99.90;;;;;;4908785;29;20057;-74
2021/09/08 02:02:25;;;;;;;11.52;6.15;;;15.20;99.90;;;;;;4909214;29;20025;-73
2021/09/08 02:04:51;;;;;;;15.38;6.18;;;15.20;99.90;;;;;;4908974;29;20567;-74
2021/09/08 02:07:17;;;;;;;13.80;6.53;;;15.20;99.90;;;;;;4909016;29;20032;-74
2021/09/08 02:09:42;;;;;;;11.40;6.25;;;15.30;99.90;;;;;;4892093;29;20086;-74
2021/09/08 02:12:08;;;;;;;18.55;6.50;;;15.20;99.90;;;;;;4891688;29;20048;-73
2021/09/08 02:14:34;;;;;;;10.75;5.53;;;15.20;99.90;;;;;;4908484;29;20131;-75
2021/09/08 02:16:59;;;;;;;10.88;6.53;;;15.20;99.90;;;;;;4892298;29;20032;-75
2021/09/08 02:19:26;;;;;;;16.65;6.13;;;15.10;99.90;;;;;;4908967;29;20029;-76
2021/09/08 02:21:51;;;;;;;13.05;6.82;;;15.20;99.90;;;;;;4909073;29;20044;-74
2021/09/08 02:24:17;;;;;;;14.40;7.20;;;15.20;99.90;;;;;;4908946;29;20392;-74
2021/09/08 02:26:42;;;;;;;8.75;5.32;;;15.10;99.90;;;;;;4891641;29;20024;-74
2021/09/08 02:29:09;;;;;;;9.73;5.45;;;15.10;99.90;;;;;;4908694;29;20025;-75
2021/09/08 02:31:35;;;;;;;14.45;6.13;;;15.10;99.90;;;;;;4908943;29;20557;-74
2021/09/08 02:34:01;;;;;;;11.82;6.18;;;15.00;99.90;;;;;;4908528;29;20253;-74
2021/09/08 02:36:26;;;;;;;10.30;5.45;;;15.00;99.90;;;;;;4892168;29;20044;-75
2021/09/08 02:38:52;;;;;;;11.45;5.38;;;14.90;99.90;;;;;;4892093;29;20041;-73
2021/09/08 02:41:18;;;;;;;14.00;6.05;;;14.90;99.90;;;;;;4908432;29;20047;-74
2021/09/08 02:43:44;;;;;;;9.13;5.85;;;14.90;99.90;;;;;;4908692;29;20033;-74
2021/09/08 02:46:10;;;;;;;10.65;5.07;;;14.90;99.90;;;;;;4908768;29;20036;-74
2021/09/08 02:48:36;;;;;;;9.68;5.22;;;14.80;99.90;;;;;;4908447;29;20039;-75
2021/09/08 02:51:03;;;;;;;13.23;5.90;;;14.80;99.90;;;;;;4908941;29;20020;-75
2021/09/08 02:53:29;;;;;;;8.52;5.20;;;14.80;99.90;;;;;;4891882;29;20084;-74
2021/09/08 02:55:54;;;;;;;10.63;5.80;;;14.80;99.90;;;;;;4908464;29;20453;-74
2021/09/08 02:58:20;;;;;;;9.13;5.40;;;14.80;99.90;;;;;;4908714;29;20479;-76
2021/09/08 03:00:45;;;;;;;10.27;5.32;;;14.80;99.90;;;;;;4908292;29;20056;-74
2021/09/08 03:03:11;;;;;;;14.95;6.20;;;14.80;99.90;;;;;;4908574;29;20040;-74
2021/09/08 03:05:37;;;;;;;10.80;5.60;;;14.80;99.90;;;;;;4908559;29;20088;-75
2021/09/08 03:08:03;;;;;;;16.90;6.68;;;14.80;99.90;;;;;;4893544;29;20053;-75
2021/09/08 03:10:30;;;;;;;12.02;5.38;;;14.70;99.90;;;;;;4912094;29;20036;-75
2021/09/08 03:12:56;;;;;;;11.75;5.22;;;14.70;99.90;;;;;;4894778;29;20028;-74
2021/09/08 03:15:22;;;;;;;11.13;5.18;;;14.70;99.90;;;;;;4894661;29;20036;-74
2021/09/08 03:17:48;;;;;;;12.45;6.28;;;14.60;99.90;;;;;;4894900;29;20033;-74
2021/09/08 03:20:14;;;;;;;8.82;5.40;;;14.60;99.90;;;;;;4911618;29;20040;-74
2021/09/08 03:22:39;;;;;;;8.20;4.88;;;14.60;99.90;;;;;;4911483;29;20076;-74
2021/09/08 03:25:06;;;;;;;10.07;4.90;;;14.60;99.90;;;;;;4911518;29;20032;-75
2021/09/08 03:27:32;;;;;;;10.93;5.03;;;14.50;99.90;;;;;;4894546;29;20148;-75
2021/09/08 03:29:57;;;;;;;10.52;5.20;;;14.50;99.90;;;;;;4894395;29;20036;-76
2021/09/08 03:32:23;;;;;;;12.20;5.30;;;14.50;99.90;;;;;;4911732;29;20028;-74
2021/09/08 03:34:48;;;;;;;9.45;4.95;;;14.50;99.90;;;;;;4911278;29;20542;-74
2021/09/08 03:37:14;;;;;;;10.32;5.38;;;14.50;99.90;;;;;;4911428;29;20080;-74
2021/09/08 03:39:40;;;;;;;8.65;5.10;;;14.40;99.90;;;;;;4911499;29;20028;-75
2021/09/08 03:42:05;;;;;;;9.10;5.45;;;14.40;99.90;;;;;;4911172;29;20510;-76
2021/09/08 03:44:31;;;;;;;13.65;5.82;;;14.40;99.90;;;;;;4911140;29;20043;-74
2021/09/08 03:46:57;;;;;;;10.73;5.35;;;14.40;99.90;;;;;;4894565;29;20053;-75
2021/09/08 03:49:22;;;;;;;11.10;5.72;;;14.40;99.90;;;;;;4910900;29;20029;-74
2021/09/08 03:51:48;;;;;;;11.25;5.30;;;14.30;99.90;;;;;;4911126;29;20043;-75
2021/09/08 03:54:14;;;;;;;14.52;5.40;;;14.30;99.90;;;;;;4911118;29;20493;-74
2021/09/08 03:56:39;;;;;;;10.38;5.25;;;14.30;99.90;;;;;;4910809;29;20064;-75
2021/09/08 03:59:05;;;;;;;11.48;5.55;;;14.30;99.90;;;;;;4911229;29;20033;-75
2021/09/08 04:01:30;;;;;;;12.48;5.18;;;14.20;99.90;;;;;;4910985;29;20456;-74
2021/09/08 04:03:56;;;;;;;15.15;6.60;;;14.20;99.90;;;;;;4893918;29;20057;-74
2021/09/08 04:06:22;;;;;;;12.73;5.15;;;14.20;99.90;;;;;;4911003;29;20085;-74
2021/09/08 04:08:47;;;;;;;11.65;5.72;;;14.00;99.90;;;;;;4911144;29;20249;-75
2021/09/08 04:11:13;;;;;;;12.20;6.53;;;14.20;99.90;;;;;;4910247;29;20029;-74
2021/09/08 04:13:39;;;;;;;11.80;5.82;;;14.10;99.90;;;;;;4893443;29;20072;-75
2021/09/08 04:16:05;;;;;;;13.80;5.65;;;14.10;99.90;;;;;;4893909;29;20044;-75
2021/09/08 04:18:30;;;;;;;10.43;5.00;;;14.10;99.90;;;;;;4910332;29;20435;-75
2021/09/08 04:20:56;;;;;;;12.68;5.97;;;14.00;99.90;;;;;;4893914;29;20047;-75
2021/09/08 04:23:22;;;;;;;11.48;5.60;;;14.10;99.90;;;;;;4910640;29;20071;-75
2021/09/08 04:25:48;;;;;;;11.43;5.93;;;14.10;99.90;;;;;;4910263;29;20028;-74
2021/09/08 04:28:13;;;;;;;9.82;5.93;;;14.10;99.90;;;;;;4910508;29;20028;-74
2021/09/08 04:30:39;;;;;;;11.82;5.35;;;14.10;99.90;;;;;;4893480;29;20039;-74
2021/09/08 04:33:05;;;;;;;11.95;5.45;;;14.10;99.90;;;;;;4893229;29;20056;-74
2021/09/08 04:35:30;;;;;;;9.50;4.97;;;14.10;99.90;;;;;;4910648;29;20084;-76
2021/09/08 04:37:56;;;;;;;13.43;6.25;;;14.00;99.90;;;;;;4910419;29;20127;-75
2021/09/08 04:40:22;;;;;;;9.52;5.72;;;14.00;99.90;;;;;;4909850;29;20072;-75
2021/09/08 04:42:47;;;;;;;8.15;4.75;;;14.00;99.90;;;;;;4910306;29;20025;-74
2021/09/08 04:45:13;;;;;;;15.65;6.95;;;14.00;99.90;;;;;;4909817;29;20060;-74
2021/09/08 04:47:39;;;;;;;15.52;6.10;;;14.00;99.90;;;;;;4910064;29;20025;-74
2021/09/08 04:50:06;;;;;;;11.82;6.28;;;13.90;99.90;;;;;;4893466;29;20142;-75
2021/09/08 04:52:34;;;;;;;17.83;6.20;;;13.90;99.90;;;;;;4892886;29;20036;-75
2021/09/08 04:55:00;;;;;;;14.02;6.43;;;13.90;99.90;;;;;;4893009;29;20029;-76
2021/09/08 04:57:26;;;;;;;15.68;6.80;;;14.00;99.90;;;;;;4910165;29;20040;-77
2021/09/08 04:59:52;;;;;;;13.75;6.60;;;13.90;99.90;;;;;;4892677;29;20075;-74
2021/09/08 05:02:18;;;;;;;11.40;6.47;;;13.90;99.90;;;;;;4892706;29;20375;-74
2021/09/08 05:04:43;;;;;;;10.90;6.30;;;13.90;99.90;;;;;;4910057;29;20033;-75
2021/09/08 05:07:09;;;;;;;15.15;6.80;;;13.90;99.90;;;;;;4892507;29;20119;-75
2021/09/08 05:09:35;;;;;;;15.55;6.43;;;13.90;99.90;;;;;;4893077;29;20035;-75
2021/09/08 05:12:01;;;;;;;42.10;7.13;;;13.80;99.90;;;;;;4909891;29;20063;-74
2021/09/08 05:14:26;;;;;;;12.57;5.93;;;13.90;99.90;;;;;;4917227;29;20391;-74
2021/09/08 05:16:52;;;;;;;14.68;6.72;;;13.90;99.90;;;;;;4909225;29;20039;-74
2021/09/08 05:19:17;;;;;;;15.02;6.97;;;13.90;99.90;;;;;;4909630;29;20067;-74
2021/09/08 05:21:43;;;;;;;11.55;6.32;;;13.90;99.90;;;;;;4892235;29;20494;-73
2021/09/08 05:24:09;;;;;;;11.40;6.40;;;13.90;99.90;;;;;;4902602;29;20032;-75
2021/09/08 05:26:34;;;;;;;13.93;6.47;;;13.90;99.90;;;;;;4909152;29;20088;-77
2021/09/08 05:29:00;;;;;;;15.23;6.78;;;13.90;99.90;;;;;;4908906;29;20088;-74
2021/09/08 05:31:27;;;;;;;17.65;6.00;;;13.90;99.90;;;;;;4909576;29;20028;-77
2021/09/08 05:33:53;;;;;;;23.83;6.53;;;14.00;99.90;;;;;;4909501;29;20032;-74
2021/09/08 05:36:18;;;;;;;11.18;6.05;;;14.00;99.90;;;;;;4914295;29;20047;-75
2021/09/08 05:38:45;;;;;;;11.55;5.43;;;14.00;99.90;;;;;;4916848;29;20053;-75
2021/09/08 05:41:11;;;;;;;18.42;6.78;;;14.10;99.90;;;;;;4914874;29;20040;-73
2021/09/08 05:43:37;;;;;;;12.15;6.53;;;14.10;99.90;;;;;;4925512;29;20059;-77
2021/09/08 05:46:04;;;;;;;14.70;6.00;;;14.10;99.90;;;;;;4915373;29;20086;-78
2021/09/08 05:48:33;;;;;;;13.18;6.43;;;14.10;99.90;;;;;;4916528;29;20088;-75
2021/09/08 05:50:58;;;;;;;13.60;5.57;;;14.20;99.90;;;;;;4902893;29;21235;-77
2021/09/08 05:53:24;;;;;;;12.63;6.65;;;14.20;99.90;;;;;;4919806;29;20056;-76
2021/09/08 05:55:51;;;;;;;13.65;5.72;;;14.30;99.90;;;;;;4919864;29;20036;-75
2021/09/08 05:58:17;;;;;;;14.80;6.85;;;14.30;99.90;;;;;;4912598;29;20031;-75
2021/09/08 06:00:42;;;;;;;15.65;6.63;;;14.40;99.90;;;;;;4915465;29;20048;-76
2021/09/08 06:03:08;;;;;;;13.63;6.03;;;14.40;99.90;;;;;;4897230;29;20040;-77
2021/09/08 06:05:33;;;;;;;13.48;6.88;;;14.40;99.90;;;;;;4907528;29;20033;-75
2021/09/08 06:07:59;;;;;;;10.07;6.05;;;14.50;99.90;;;;;;4896014;29;20040;-74
2021/09/08 06:10:25;;;;;;;10.50;5.75;;;14.50;99.90;;;;;;4899890;29;20084;-75
2021/09/08 06:12:50;;;;;;;13.93;6.57;;;14.50;99.90;;;;;;4919259;29;20055;-74
2021/09/08 06:15:17;;;;;;;13.45;6.53;;;14.60;99.90;;;;;;4923118;29;20371;-74
2021/09/08 06:17:43;;;;;;;14.05;6.60;;;14.60;99.90;;;;;;4915788;29;20032;-74
2021/09/08 06:20:09;;;;;;;17.65;7.25;;;14.70;99.90;;;;;;4915179;29;20488;-76
2021/09/08 06:22:35;;;;;;;15.48;6.43;;;14.70;99.90;;;;;;4892319;29;20032;-77
2021/09/08 06:25:01;;;;;;;16.52;7.00;;;14.70;99.90;;;;;;4892056;29;20025;-75
2021/09/08 06:27:28;;;;;;;12.88;7.07;;;14.80;99.90;;;;;;4891981;29;20043;-74
2021/09/08 06:29:54;;;;;;;12.63;6.57;;;14.80;99.90;;;;;;4908833;29;20032;-75
2021/09/08 06:32:19;;;;;;;13.55;6.15;;;14.90;99.90;;;;;;4908832;29;20040;-73
2021/09/08 06:34:47;;;;;;;10.45;5.38;;;14.90;99.90;;;;;;4909066;29;20107;-75
2021/09/08 06:37:13;;;;;;;13.02;7.03;;;14.90;99.90;;;;;;4891821;29;20036;-73
2021/09/08 06:39:39;;;;;;;16.20;6.65;;;15.00;99.90;;;;;;4908710;29;20052;-73
2021/09/08 06:42:05;;;;;;;11.93;5.90;;;15.00;99.90;;;;;;4911540;29;20048;-76
2021/09/08 06:44:31;;;;;;;15.30;6.47;;;15.10;99.90;;;;;;4895328;29;20047;-72
2021/09/08 06:46:57;;;;;;;15.52;6.32;;;15.20;99.90;;;;;;4912528;29;20040;-73
2021/09/08 06:49:23;;;;;;;13.90;6.65;;;15.20;99.90;;;;;;4895650;29;20032;-72
2021/09/08 06:51:49;;;;;;;21.23;6.45;;;15.20;99.90;;;;;;4911821;29;20069;-73
2021/09/08 06:54:14;;;;;;;15.18;6.40;;;15.30;99.90;;;;;;4912075;29;20107;-72
2021/09/08 06:56:40;;;;;;;16.23;7.05;;;15.30;99.90;;;;;;4900171;29;20553;-75
2021/09/08 06:59:06;;;;;;;14.07;6.57;;;15.40;99.90;;;;;;4922126;29;20064;-74
2021/09/08 07:01:31;;;;;;;15.05;5.95;;;15.50;99.90;;;;;;4930962;29;20051;-74
2021/09/08 07:03:57;;;;;;;14.18;6.82;;;15.60;99.90;;;;;;4931352;29;20083;-76
2021/09/08 07:06:23;;;;;;;13.88;6.03;;;15.60;99.90;;;;;;4913448;29;20020;-75
2021/09/08 07:08:50;;;;;;;16.38;6.55;;;15.80;99.90;;;;;;4930959;29;20028;-74
2021/09/08 07:11:16;;;;;;;15.02;7.45;;;15.70;99.90;;;;;;4913915;29;20103;-75
2021/09/08 07:13:42;;;;;;;15.82;6.90;;;15.80;99.90;;;;;;4929860;29;20060;-75
2021/09/08 07:16:08;;;;;;;15.15;5.90;;;15.90;99.90;;;;;;4930783;29;20032;-76
2021/09/08 07:18:34;;;;;;;17.05;7.15;;;16.00;99.90;;;;;;4913693;29;20032;-74
2021/09/08 07:21:00;;;;;;;13.27;6.78;;;16.10;99.90;;;;;;4930455;29;20044;-73
2021/09/08 07:23:26;;;;;;;16.48;7.22;;;16.20;99.90;;;;;;4913602;29;20417;-75
2021/09/08 07:25:52;;;;;;;11.57;6.20;;;16.30;99.90;;;;;;4930811;29;20036;-75
2021/09/08 07:28:17;;;;;;;15.40;7.00;;;16.40;99.90;;;;;;4913095;29;20048;-75
2021/09/08 07:30:43;;;;;;;15.82;6.40;;;16.50;99.90;;;;;;4930624;29;20083;-73
2021/09/08 07:33:08;;;;;;;15.82;6.68;;;16.60;99.90;;;;;;4930455;29;20040;-75
2021/09/08 07:35:34;;;;;;;33.75;8.32;;;16.70;99.90;;;;;;4913016;29;20090;-73
2021/09/08 07:38:00;;;;;;;12.98;6.85;;;16.80;99.90;;;;;;4930569;29;20076;-74
2021/09/08 07:40:27;;;;;;;18.30;7.40;;;16.90;99.90;;;;;;4930427;29;20113;-74
2021/09/08 07:42:53;;;;;;;20.17;7.15;;;17.00;99.90;;;;;;4930208;29;20032;-73
2021/09/08 07:45:19;;;;;;;18.17;7.07;;;17.10;99.90;;;;;;4913232;29;20036;-72
2021/09/08 07:47:45;;;;;;;15.65;6.55;;;17.30;99.90;;;;;;4906792;29;20054;-75
2021/09/08 07:50:11;;;;;;;13.20;6.85;;;17.30;99.90;;;;;;4906290;29;20040;-73
2021/09/08 07:52:37;;;;;;;15.88;7.03;;;17.30;99.90;;;;;;4923236;29;20597;-74
2021/09/08 07:55:05;;;;;;;15.95;7.93;;;17.50;99.90;;;;;;4916448;29;20029;-73
2021/09/08 07:57:31;;;;;;;19.10;6.35;;;17.60;99.90;;;;;;4910724;29;20036;-74
2021/09/08 07:59:56;;;;;;;17.35;6.93;;;17.70;99.90;;;;;;4913531;29;20067;-72
2021/09/08 08:02:22;;;;;;;13.75;6.50;;;17.80;99.90;;;;;;4923596;29;20032;-73
2021/09/08 08:04:47;;;;;;;16.20;7.43;;;17.90;99.90;;;;;;4916936;29;20028;-73
2021/09/08 08:07:13;;;;;;;13.40;6.43;;;18.10;99.90;;;;;;4911116;29;20104;-74
2021/09/08 08:09:42;;;;;;;18.30;5.78;;;18.20;99.90;;;;;;4910622;29;20060;-72
2021/09/08 08:12:10;;;;;;;23.60;6.82;;;18.40;99.90;;;;;;4915793;29;20028;-74
2021/09/08 08:14:36;;;;;;;12.02;5.72;;;18.50;99.90;;;;;;4912518;29;20052;-72
2021/09/08 08:17:03;;;;;;;12.10;5.60;;;18.60;99.90;;;;;;4910336;29;20037;-72
2021/09/08 08:19:29;;;;;;;16.65;6.70;;;18.70;99.90;;;;;;4910217;29;20025;-75
2021/09/08 08:21:54;;;;;;;11.57;5.20;;;18.80;99.90;;;;;;4904818;29;20561;-73
2021/09/08 08:24:20;;;;;;;14.23;5.72;;;18.90;99.90;;;;;;4914546;29;20036;-72
2021/09/08 08:26:46;;;;;;;16.65;6.60;;;19.00;99.90;;;;;;4905322;29;20036;-70
2021/09/08 08:29:11;;;;;;;17.75;5.95;;;19.10;99.90;;;;;;4922774;29;20103;-76
2021/09/08 08:31:37;;;;;;;12.95;5.70;;;19.20;99.90;;;;;;4918514;29;20040;-73
2021/09/08 08:34:03;;;;;;;15.20;6.88;;;19.30;99.90;;;;;;4919230;29;20024;-72
2021/09/08 08:36:29;;;;;;;21.00;6.50;;;19.40;99.90;;;;;;4906138;29;20043;-71
2021/09/08 08:38:55;;;;;;;12.82;6.50;;;19.50;99.90;;;;;;4916469;29;20032;-71
2021/09/08 08:41:23;;;;;;;11.77;5.53;;;19.60;99.90;;;;;;4916574;29;20044;-74
2021/09/08 08:43:50;;;;;;;11.65;6.05;;;19.80;99.90;;;;;;4914319;29;20048;-71
2021/09/08 08:46:16;;;;;;;12.23;5.95;;;19.90;99.90;;;;;;4906537;29;20060;-72
2021/09/08 08:48:42;;;;;;;12.07;6.00;;;20.00;99.90;;;;;;4913166;29;20067;-70
2021/09/08 08:51:08;;;;;;;23.08;5.93;;;20.00;99.90;;;;;;4912981;29;20032;-72
2021/09/08 08:53:35;;;;;;;15.35;6.35;;;20.20;99.90;;;;;;4924875;29;20028;-73
2021/09/08 08:56:01;;;;;;;10.73;5.60;;;20.20;99.90;;;;;;4921105;29;20051;-74
2021/09/08 08:58:27;;;;;;;11.27;4.95;;;20.40;99.90;;;;;;4919474;29;20036;-74
2021/09/08 09:01:14;;;;;;;13.35;5.75;;;20.50;99.90;;;;;;4923595;29;20094;-73
2021/09/08 09:03:40;;;;;;;13.68;5.68;;;20.60;99.90;;;;;;4919250;29;20064;-72
2021/09/08 09:06:09;;;;;;;9.23;4.97;;;20.70;99.90;;;;;;4906320;29;20046;-75
2021/09/08 09:08:35;;;;;;;14.35;4.80;;;20.90;99.90;;;;;;4917219;29;20130;-74
2021/09/08 09:11:02;;;;;;;8.93;4.18;;;21.00;99.90;;;;;;4917637;29;20041;-72
2021/09/08 09:13:33;;;;;;;17.80;5.20;;;21.10;99.90;;;;;;4919674;29;20040;-77
2021/09/08 09:16:09;;;;;;;15.85;5.18;;;21.30;99.90;;;;;;4895736;29;20172;-71
2021/09/08 09:18:47;;;;;;;10.80;5.40;;;21.40;99.90;;;;;;4908536;29;20032;-73
2021/09/08 09:21:14;;;;;;;8.63;5.07;;;21.40;99.90;;;;;;4914866;29;20425;-73
2021/09/08 09:23:50;;;;;;;7.85;4.50;;;21.50;99.90;;;;;;4914784;29;20024;-74
2021/09/08 09:26:28;;;;;;;9.27;4.70;;;21.60;99.90;;;;;;4905725;29;20044;-72
2021/09/08 09:29:04;;;;;;;14.27;5.82;;;21.70;99.90;;;;;;4911975;29;20063;-73
2021/09/08 09:31:30;;;;;;;12.13;5.43;;;21.70;99.90;;;;;;4908752;29;20025;-74
2021/09/08 09:33:57;;;;;;;9.85;4.95;;;21.80;99.90;;;;;;4918313;29;20024;-75
2021/09/08 09:36:27;;;;;;;10.20;5.47;;;21.90;99.90;;;;;;4909265;29;20420;-71
2021/09/08 09:38:54;;;;;;;8.48;4.65;;;21.90;99.90;;;;;;4908260;29;20518;-73
2021/09/08 09:41:30;;;;;;;11.02;4.97;;;22.00;99.90;;;;;;4905633;29;20040;-73
2021/09/08 09:44:04;;;;;;;15.40;6.10;;;22.00;99.90;;;;;;4908517;29;20021;-72
2021/09/08 09:46:30;;;;;;;11.35;5.90;;;22.00;99.90;;;;;;4909478;29;20477;-73
2021/09/08 09:48:56;;;;;;;10.75;5.05;;;22.20;99.90;;;;;;4910680;29;20039;-70
2021/09/08 09:51:23;;;;;;;12.43;6.20;;;22.30;99.90;;;;;;4898461;29;20048;-72
2021/09/08 09:53:49;;;;;;;11.15;4.95;;;22.30;99.90;;;;;;4914322;29;20024;-72
2021/09/08 09:56:14;;;;;;;9.27;5.35;;;22.30;99.90;;;;;;4908789;29;20063;-72
2021/09/08 09:58:46;;;;;;;8.35;4.63;;;22.30;99.90;;;;;;4918046;29;20084;-72
2021/09/08 10:01:12;;;;;;;16.10;5.43;;;22.50;99.90;;;;;;4927781;29;20044;-75
2021/09/08 10:03:39;;;;;;;10.18;4.90;;;22.60;99.90;;;;;;4907675;29;20028;-72
2021/09/08 10:06:05;;;;;;;11.68;5.65;;;22.70;99.90;;;;;;4892238;29;20029;-71
2021/09/08 10:08:37;;;;;;;8.50;4.28;;;22.60;99.90;;;;;;4908937;29;20039;-73
2021/09/08 10:11:07;;;;;;;7.88;4.72;;;22.80;99.90;;;;;;4900308;29;20052;-76
2021/09/08 10:13:40;;;;;;;10.48;3.85;;;22.80;99.90;;;;;;4927506;29;20056;-72
2021/09/08 10:16:06;;;;;;;8.73;3.67;;;22.90;99.90;;;;;;4928734;29;20028;-71
2021/09/08 10:18:34;;;;;;;9.70;4.50;;;22.90;99.90;;;;;;4919285;29;20037;-73
2021/09/08 10:21:18;;;;;;;7.18;3.35;;;23.00;99.90;;;;;;4926246;29;20101;-72
2021/09/08 10:23:52;;;;;;;7.40;3.40;;;23.10;99.90;;;;;;4918935;29;20024;-70
2021/09/08 10:26:18;;;;;;;16.25;5.03;;;23.10;99.90;;;;;;4897866;29;20312;-70
2021/09/08 10:28:46;;;;;;;6.47;3.95;;;23.10;99.90;;;;;;4910443;29;20044;-73
2021/09/08 10:31:13;;;;;;;8.32;4.30;;;23.20;99.90;;;;;;4911724;29;20044;-72
2021/09/08 10:33:40;;;;;;;9.35;4.63;;;23.20;99.90;;;;;;4911447;29;20032;-71
2021/09/08 10:36:09;;;;;;;7.60;3.42;;;23.30;99.90;;;;;;4911848;29;20033;-72
2021/09/08 10:38:35;;;;;;;8.15;3.53;;;23.50;99.90;;;;;;4912437;29;20025;-71
2021/09/08 10:41:03;;;;;;;7.95;3.80;;;23.60;99.90;;;;;;4912569;29;20045;-69
2021/09/08 10:43:34;;;;;;;7.13;3.08;;;23.90;99.90;;;;;;4910536;29;20119;-71
2021/09/08 10:46:01;;;;;;;4.05;2.55;;;24.00;99.90;;;;;;4912173;29;20033;-72
2021/09/08 10:48:42;;;;;;;9.75;3.60;;;24.10;99.90;;;;;;4912802;29;20088;-72
2021/09/08 10:51:42;;;;;;;6.13;3.20;;;24.30;99.90;;;;;;4911876;29;20393;-72
2021/09/08 10:54:07;;;;;;;7.82;3.47;;;24.20;99.90;;;;;;4912267;29;20040;-74
2021/09/08 10:56:45;;;;;;;8.60;2.78;;;24.20;99.90;;;;;;4911588;29;20024;-73
2021/09/08 10:59:10;;;;;;;12.20;3.13;;;24.40;99.90;;;;;;4911714;29;20029;-70
2021/09/08 11:01:36;;;;;;;6.13;3.60;;;24.50;99.90;;;;;;4911889;29;20036;-72
2021/09/08 11:04:02;;;;;;;6.18;3.13;;;24.50;99.90;;;;;;4912083;29;20032;-72
2021/09/08 11:06:44;;;;;;;5.75;3.03;;;24.50;99.90;;;;;;4911944;29;20036;-70
2021/09/08 11:09:11;;;;;;;3.22;2.15;;;24.50;99.90;;;;;;4911903;29;20421;-76
2021/09/08 11:11:52;;;;;;;5.55;3.13;;;24.50;99.90;;;;;;4910451;29;20024;-74
2021/09/08 11:14:18;;;;;;;3.92;2.63;;;24.70;99.90;;;;;;4910497;29;20044;-73
2021/09/08 11:16:44;;;;;;;11.18;2.17;;;24.80;99.90;;;;;;4911605;29;20061;-77
2021/09/08 11:19:13;;;;;;;7.25;2.55;;;24.80;99.90;;;;;;4910211;29;20028;-75
2021/09/08 11:21:39;;;;;;;5.15;2.25;;;25.00;99.90;;;;;;4911871;29;20032;-72
2021/09/08 11:24:10;;;;;;;4.68;2.45;;;25.20;99.90;;;;;;4911496;29;20095;-75
2021/09/08 11:26:38;;;;;;;5.45;2.42;;;25.40;99.90;;;;;;4910379;29;20176;-74
2021/09/08 11:29:07;;;;;;;3.28;1.98;;;25.50;99.90;;;;;;4910613;29;20028;-73
2021/09/08 11:31:39;;;;;;;3.63;2.10;;;25.70;99.90;;;;;;4894609;29;20032;-74
2021/09/08 11:34:19;;;;;;;9.20;2.80;;;25.60;99.90;;;;;;4911070;29;20036;-73
2021/09/08 11:36:45;;;;;;;2.53;1.75;;;25.60;99.90;;;;;;4911475;29;20025;-75
2021/09/08 11:39:16;;;;;;;4.97;2.20;;;25.70;99.90;;;;;;4911480;29;20083;-75
2021/09/08 11:42:00;;;;;;;4.93;3.00;;;25.90;99.90;;;;;;4910962;29;20036;-73
2021/09/08 11:44:26;;;;;;;3.45;2.00;;;25.80;99.90;;;;;;4911632;29;20060;-73
2021/09/08 11:46:52;;;;;;;3.75;2.05;;;25.90;99.90;;;;;;4911217;29;20112;-72
2021/09/08 11:49:18;;;;;;;4.75;2.35;;;25.90;99.90;;;;;;4911237;29;20075;-74
2021/09/08 11:51:45;;;;;;;6.43;2.05;;;25.90;99.90;;;;;;4911443;29;20029;-71
2021/09/08 11:54:19;;;;;;;4.20;2.03;;;25.90;99.90;;;;;;4910860;29;20059;-71
2021/09/08 11:56:57;;;;;;;21.15;2.60;;;26.00;99.90;;;;;;4909884;29;20029;-72
2021/09/08 11:59:41;;;;;;;3.47;1.90;;;26.00;99.90;;;;;;4909810;29;20064;-76
2021/09/08 12:02:07;;;;;;;5.53;2.20;;;26.10;99.90;;;;;;4893782;29;20049;-74
2021/09/08 12:04:33;;;;;;;3.13;1.95;;;26.10;99.90;;;;;;4911028;29;20039;-70
2021/09/08 12:07:05;;;;;;;3.85;2.13;;;26.20;99.90;;;;;;4912417;29;20039;-70
2021/09/08 12:09:36;;;;;;;3.97;1.80;;;26.10;99.90;;;;;;4911368;29;20029;-75
2021/09/08 12:12:04;;;;;;;2.95;1.85;;;26.20;99.90;;;;;;4894158;29;20028;-72
2021/09/08 12:14:40;;;;;;;3.88;1.90;;;26.40;99.90;;;;;;4890567;29;20398;-73
2021/09/08 12:17:09;;;;;;;3.92;2.05;;;26.50;99.90;;;;;;4892180;29;20036;-74
2021/09/08 12:19:37;;;;;;;6.35;2.42;;;26.70;99.90;;;;;;4891900;29;20029;-74
2021/09/08 12:22:08;;;;;;;5.32;2.20;;;26.80;99.90;;;;;;4890189;29;20037;-75
2021/09/08 12:24:42;;;;;;;5.97;2.17;;;27.00;99.90;;;;;;4892616;29;20063;-71
2021/09/08 12:27:24;;;;;;;2.58;1.60;;;27.30;99.90;;;;;;4891804;29;20039;-74
2021/09/08 12:29:50;;;;;;;2.92;1.92;;;27.50;99.90;;;;;;4891693;29;20037;-73
2021/09/08 12:32:17;;;;;;;6.22;2.00;;;27.80;99.90;;;;;;4890771;29;20036;-70
2021/09/08 12:34:44;;;;;;;6.10;1.88;;;28.00;99.90;;;;;;4890851;29;20060;-71
2021/09/08 12:37:10;;;;;;;2.80;1.58;;;28.00;99.90;;;;;;4891545;29;20027;-74
2021/09/08 12:39:47;;;;;;;7.47;1.73;;;28.20;99.90;;;;;;4891921;29;20107;-78